Huvudsida
METAR-TAF:

METAR-TAF

Flygplatser :

Tallinns internationella flygplats

Tallinn, Estland

latitud: 59-23N, longitud: 024-35E, höjd: 44 m

Aktuellt väderrapport

Denna rapport gjordes för 32 minuter sedan, klockan 09:20 UTC
Vind 4 kt från sydost
Temperatur -2°C
Fuktighet 80%
Tryck 1037 hPa
Sikt 10 km eller mer
Mulet på en höjd av 1900 ft

METAR: EETN 150920Z 13004KT 9999 OVC019 M02/M05 Q1037 R08/19//95 NOSIG

Tid: 11:52 (09:52 UTC)

Väderprognos

Denna rapport gjordes för 4 timmar och 22 minuter sedan, klockan 05:30 UTC
Prognos gäller från 15 kl. 06 UTC till 16 kl. 06 UTC
Vind 8 kt från ost/sydost
Sikt 10 km eller mer
Mulet på en höjd av 2000 ft
Sannolikhet 40% :
Temporärt
från 15 kl. 06 UTC till 16 kl. 10 UTC
Brutna moln på en höjd av 800 ft
Mulet på en höjd av 1500 ft
Temporärt
från 15 kl. 19 UTC till 16 kl. 06 UTC
Brutna moln på en höjd av 800 ft
Mulet på en höjd av 1500 ft

TAF: EETN 150530Z 1506/1606 12008KT 9999 OVC020 PROB40 TEMPO 1506/1610 BKN008 OVC015 TEMPO 1519/1606 BKN008 OVC015

Aktuella väderrapporter och prognoser från 4000 flygplatser (METAR- och TAF-rapporter).

De tillgängliga stationerna syns som gula och röda prickar på kartan.

För musen över prickarna för att se namnen på stationerna.

Klicka sedan för att få väderrapporter och prognoser.

För att ändra kartan: Klicka på de gröna knapparna med ett svart kors på för att zooma in; den gröna knappen med ett streck på för att zooma ut; eller på de gröna pilarna för angränsande kartor.


METAR-TAF: